^^
Grace C. Lehan Memorial Weather Station Historical Data
Daily Summary for April 21, 2021 Units:  Both    English   Metric
Daily Weekly Monthly Yearly
  High: Low: Average:
Temperature: 75.6 °F /  24.2 °C 70.2 °F /  21.2 °C 71.9 °F /  22.2 °C
Dew Point: 72.1 °F /  22.3 °C 67.2 °F /  19.6 °C 68.4 °F /  20.2 °C
Humidity: 93% 84% 89%
Wind Speed: 0mph /  0km/h - 0mph /  0km/h
Wind Gust: 1mph /  1.6km/h - -
Wind- -
Pressure: 29.76 in /  1007.7 hPa 29.71 in /  1006 hPa -
Precipitation: 0.00 in /  0 mm    
 
 
Tabular Data for April 21, 2021
Time Temperature Dew Point Pressure Wind Wind Speed Wind Gust Humidity Rainfall Rate (Hourly) solar
00:09 74.1 °F /  23.4 °C 69 °F /  20.6 °C 29.76in /  1007.7hPa Calm     84% 0.00in /  0mm 0 W/m2
00:14 74 °F /  23.3 °C 68.9 °F /  20.5 °C 29.76in /  1007.7hPa Calm     84% 0.00in /  0mm 0 W/m2
00:19 73.9 °F /  23.3 °C 68.8 °F /  20.4 °C 29.75in /  1007.3hPa Calm     84% 0.00in /  0mm 0 W/m2
00:24 73.8 °F /  23.2 °C 68.7 °F /  20.4 °C 29.75in /  1007.3hPa Calm     84% 0.00in /  0mm 0 W/m2
00:29 73.7 °F /  23.2 °C 68.6 °F /  20.3 °C 29.75in /  1007.3hPa Calm     84% 0.00in /  0mm 0 W/m2
00:34 73.7 °F /  23.2 °C 68.5 °F /  20.3 °C 29.75in /  1007.3hPa Calm     84% 0.00in /  0mm 0 W/m2
00:39 73.5 °F /  23.1 °C 68.7 °F /  20.4 °C 29.74in /  1007hPa Calm     84.9% 0.00in /  0mm 0 W/m2
00:44 73.5 °F /  23.1 °C 68.7 °F /  20.4 °C 29.74in /  1007hPa Calm     85% 0.00in /  0mm 0 W/m2
00:49 73.4 °F /  23 °C 68.6 °F /  20.3 °C 29.74in /  1007hPa Calm     85% 0.00in /  0mm 0 W/m2
00:54 73.3 °F /  22.9 °C 68.5 °F /  20.3 °C 29.75in /  1007.3hPa Calm     85% 0.00in /  0mm 0 W/m2
00:59 73.2 °F /  22.9 °C 68.4 °F /  20.2 °C 29.74in /  1007hPa Calm     85% 0.00in /  0mm 0 W/m2
01:04 73.1 °F /  22.8 °C 68.3 °F /  20.2 °C 29.74in /  1007hPa Calm     85% 0.00in /  0mm 0 W/m2
01:09 73 °F /  22.8 °C 68.2 °F /  20.1 °C 29.73in /  1006.7hPa Calm     85% 0.00in /  0mm 0 W/m2
01:14 72.9 °F /  22.7 °C 68.1 °F /  20.1 °C 29.73in /  1006.7hPa Calm     85% 0.00in /  0mm 0 W/m2
01:19 72.8 °F /  22.7 °C 68 °F /  20 °C 29.73in /  1006.7hPa Calm   1mph /  1.6km/h 85% 0.00in /  0mm 0 W/m2
01:24 72.7 °F /  22.6 °C 67.9 °F /  19.9 °C 29.73in /  1006.7hPa Calm   1mph /  1.6km/h 85% 0.00in /  0mm 0 W/m2
01:29 72.7 °F /  22.6 °C 68.1 °F /  20.1 °C 29.73in /  1006.7hPa Calm   1mph /  1.6km/h 85.6% 0.00in /  0mm 0 W/m2
01:34 72.6 °F /  22.6 °C 68.2 °F /  20.1 °C 29.73in /  1006.7hPa Calm   1mph /  1.6km/h 86% 0.00in /  0mm 0 W/m2
01:39 72.6 °F /  22.6 °C 68.1 °F /  20.1 °C 29.73in /  1006.7hPa Calm     86% 0.00in /  0mm 0 W/m2
01:44 72.5 °F /  22.5 °C 68 °F /  20 °C 29.73in /  1006.7hPa Calm     86% 0.00in /  0mm 0 W/m2
01:49 72.4 °F /  22.4 °C 68 °F /  20 °C 29.72in /  1006.3hPa Calm     86% 0.00in /  0mm 0 W/m2
01:54 72.3 °F /  22.4 °C 67.9 °F /  19.9 °C 29.72in /  1006.3hPa Calm     86% 0.00in /  0mm 0 W/m2
01:59 72.2 °F /  22.3 °C 67.8 °F /  19.9 °C 29.72in /  1006.3hPa Calm     86% 0.00in /  0mm 0 W/m2
02:04 72.1 °F /  22.3 °C 67.7 °F /  19.8 °C 29.72in /  1006.3hPa Calm     86% 0.00in /  0mm 0 W/m2
02:09 72 °F /  22.2 °C 67.6 °F /  19.8 °C 29.72in /  1006.3hPa Calm     86% 0.00in /  0mm 0 W/m2
02:14 71.9 °F /  22.2 °C 67.5 °F /  19.7 °C 29.72in /  1006.3hPa Calm     86% 0.00in /  0mm 0 W/m2
02:19 71.9 °F /  22.2 °C 67.5 °F /  19.7 °C 29.72in /  1006.3hPa Calm     86% 0.00in /  0mm 0 W/m2
02:24 71.8 °F /  22.1 °C 67.4 °F /  19.7 °C 29.72in /  1006.3hPa Calm     86% 0.00in /  0mm 0 W/m2
02:29 71.7 °F /  22.1 °C 67.6 °F /  19.8 °C 29.72in /  1006.3hPa Calm     86.9% 0.00in /  0mm 0 W/m2
02:34 71.7 °F /  22.1 °C 67.6 °F /  19.8 °C 29.72in /  1006.3hPa Calm     87% 0.00in /  0mm 0 W/m2
02:39 71.6 °F /  22 °C 67.5 °F /  19.7 °C 29.72in /  1006.3hPa Calm     87% 0.00in /  0mm 0 W/m2
02:44 71.6 °F /  22 °C 67.5 °F /  19.7 °C 29.72in /  1006.3hPa Calm     87% 0.00in /  0mm 0 W/m2
02:49 71.5 °F /  21.9 °C 67.4 °F /  19.7 °C 29.71in /  1006hPa Calm     87% 0.00in /  0mm 0 W/m2
02:54 71.5 °F /  21.9 °C 67.4 °F /  19.7 °C 29.72in /  1006.3hPa Calm     87% 0.00in /  0mm 0 W/m2
02:59 71.5 °F /  21.9 °C 67.4 °F /  19.7 °C 29.72in /  1006.3hPa Calm     87% 0.00in /  0mm 0 W/m2
03:04 71.5 °F /  21.9 °C 67.4 °F /  19.7 °C 29.72in /  1006.3hPa Calm     87% 0.00in /  0mm 0 W/m2
03:09 71.5 °F /  21.9 °C 67.4 °F /  19.7 °C 29.72in /  1006.3hPa Calm     87% 0.00in /  0mm 0 W/m2
03:14 71.5 °F /  21.9 °C 67.4 °F /  19.7 °C 29.72in /  1006.3hPa Calm     87% 0.00in /  0mm 0 W/m2
03:19 71.5 °F /  21.9 °C 67.4 °F /  19.7 °C 29.72in /  1006.3hPa Calm     87% 0.00in /  0mm 0 W/m2
03:24 71.5 °F /  21.9 °C 67.4 °F /  19.7 °C 29.72in /  1006.3hPa Calm     87% 0.00in /  0mm 0 W/m2
03:29 71.4 °F /  21.9 °C 67.4 °F /  19.7 °C 29.72in /  1006.3hPa Calm     87% 0.00in /  0mm 0 W/m2
03:34 71.4 °F /  21.9 °C 67.5 °F /  19.7 °C 29.72in /  1006.3hPa Calm     87.4% 0.00in /  0mm 0 W/m2
03:39 71.3 °F /  21.8 °C 67.6 °F /  19.8 °C 29.72in /  1006.3hPa Calm     88% 0.00in /  0mm 0 W/m2
03:44 71.3 °F /  21.8 °C 67.6 °F /  19.8 °C 29.72in /  1006.3hPa Calm     88% 0.00in /  0mm 0 W/m2
03:49 71.2 °F /  21.8 °C 67.5 °F /  19.7 °C 29.72in /  1006.3hPa Calm     88% 0.00in /  0mm 0 W/m2
03:54 71.2 °F /  21.8 °C 67.5 °F /  19.7 °C 29.72in /  1006.3hPa Calm     88% 0.00in /  0mm 0 W/m2
03:59 71.1 °F /  21.7 °C 67.4 °F /  19.7 °C 29.72in /  1006.3hPa Calm     88% 0.00in /  0mm 0 W/m2
04:00 71.1 °F /  21.7 °C 67.4 °F /  19.7 °C 29.72in /  1006.3hPa Calm     88% 0.00in /  0mm 0 W/m2
04:09 71 °F /  21.7 °C 67.3 °F /  19.6 °C 29.73in /  1006.7hPa Calm     88% 0.00in /  0mm 0 W/m2
04:14 70.9 °F /  21.6 °C 67.2 °F /  19.6 °C 29.73in /  1006.7hPa Calm     88% 0.00in /  0mm 0 W/m2
04:19 70.9 °F /  21.6 °C 67.4 °F /  19.7 °C 29.73in /  1006.7hPa Calm     88.8% 0.00in /  0mm 0 W/m2
04:24 70.8 °F /  21.6 °C 67.4 °F /  19.7 °C 29.73in /  1006.7hPa Calm     89% 0.00in /  0mm 0 W/m2
04:29 70.8 °F /  21.6 °C 67.4 °F /  19.7 °C 29.73in /  1006.7hPa Calm     89% 0.00in /  0mm 0 W/m2
04:34 70.8 °F /  21.6 °C 67.4 °F /  19.7 °C 29.72in /  1006.3hPa Calm     89% 0.00in /  0mm 0 W/m2
04:39 70.8 °F /  21.6 °C 67.4 °F /  19.7 °C 29.72in /  1006.3hPa Calm     89% 0.00in /  0mm 0 W/m2
04:44 70.8 °F /  21.6 °C 67.5 °F /  19.7 °C 29.72in /  1006.3hPa Calm     89.5% 0.00in /  0mm 0 W/m2
04:49 70.8 °F /  21.6 °C 67.7 °F /  19.8 °C 29.72in /  1006.3hPa Calm     90% 0.00in /  0mm 0 W/m2
04:54 70.7 °F /  21.5 °C 67.6 °F /  19.8 °C 29.72in /  1006.3hPa Calm     90% 0.00in /  0mm 0 W/m2
04:59 70.7 °F /  21.5 °C 67.6 °F /  19.8 °C 29.72in /  1006.3hPa Calm     90% 0.00in /  0mm 0 W/m2
05:04 70.6 °F /  21.4 °C 67.5 °F /  19.7 °C 29.72in /  1006.3hPa Calm     90% 0.00in /  0mm 0 W/m2
05:09 70.5 °F /  21.4 °C 67.5 °F /  19.7 °C 29.72in /  1006.3hPa Calm     90% 0.00in /  0mm 0 W/m2
05:14 70.5 °F /  21.4 °C 67.4 °F /  19.7 °C 29.72in /  1006.3hPa Calm     90% 0.00in /  0mm 0 W/m2
05:19 70.4 °F /  21.3 °C 67.3 °F /  19.6 °C 29.72in /  1006.3hPa Calm     90% 0.00in /  0mm 0 W/m2
05:24 70.3 °F /  21.3 °C 67.3 °F /  19.6 °C 29.72in /  1006.3hPa Calm     90% 0.00in /  0mm 0 W/m2
05:29 70.3 °F /  21.3 °C 67.4 °F /  19.7 °C 29.72in /  1006.3hPa Calm     90.7% 0.00in /  0mm 5 W/m2
05:34 70.2 °F /  21.2 °C 67.5 °F /  19.7 °C 29.72in /  1006.3hPa Calm     91% 0.00in /  0mm 9 W/m2
05:39 70.2 °F /  21.2 °C 67.4 °F /  19.7 °C 29.72in /  1006.3hPa Calm     91% 0.00in /  0mm 11 W/m2
05:44 70.2 °F /  21.2 °C 67.4 °F /  19.7 °C 29.72in /  1006.3hPa Calm     91% 0.00in /  0mm 12 W/m2
05:49 70.2 °F /  21.2 °C 67.4 °F /  19.7 °C 29.72in /  1006.3hPa Calm     91% 0.00in /  0mm 16 W/m2
05:54 70.2 °F /  21.2 °C 67.8 °F /  19.9 °C 29.72in /  1006.3hPa Calm     91.9% 0.00in /  0mm 16 W/m2
05:59 70.3 °F /  21.3 °C 67.8 °F /  19.9 °C 29.72in /  1006.3hPa Calm     92% 0.00in /  0mm 21 W/m2
06:04 70.3 °F /  21.3 °C 67.9 °F /  19.9 °C 29.72in /  1006.3hPa Calm     92% 0.00in /  0mm 23 W/m2
06:09 70.4 °F /  21.3 °C 68 °F /  20 °C 29.73in /  1006.7hPa Calm     92% 0.00in /  0mm 26 W/m2
06:14 70.5 °F /  21.4 °C 68 °F /  20 °C 29.73in /  1006.7hPa Calm     92% 0.00in /  0mm 32 W/m2
06:19 70.5 °F /  21.4 °C 68.1 °F /  20.1 °C 29.72in /  1006.3hPa Calm     92% 0.00in /  0mm 32 W/m2
06:24 70.6 °F /  21.4 °C 68.2 °F /  20.1 °C 29.72in /  1006.3hPa Calm     92.1% 0.00in /  0mm 33 W/m2
06:29 70.7 °F /  21.5 °C 68.6 °F /  20.3 °C 29.73in /  1006.7hPa Calm     93% 0.00in /  0mm 35 W/m2
06:34 70.8 °F /  21.6 °C 68.7 °F /  20.4 °C 29.73in /  1006.7hPa Calm     93% 0.00in /  0mm 39 W/m2
06:39 70.9 °F /  21.6 °C 68.7 °F /  20.4 °C 29.73in /  1006.7hPa Calm     93% 0.00in /  0mm 35 W/m2
06:44 71 °F /  21.7 °C 68.9 °F /  20.5 °C 29.73in /  1006.7hPa Calm     93% 0.00in /  0mm 33 W/m2
06:49 71 °F /  21.7 °C 68.9 °F /  20.5 °C 29.73in /  1006.7hPa Calm     93% 0.00in /  0mm 33 W/m2
06:54 71.1 °F /  21.7 °C 68.8 °F /  20.4 °C 29.73in /  1006.7hPa Calm     92.5% 0.00in /  0mm 53 W/m2
06:59 71.2 °F /  21.8 °C 68.7 °F /  20.4 °C 29.73in /  1006.7hPa Calm     92% 0.00in /  0mm 53 W/m2
07:04 71.2 °F /  21.8 °C 69 °F /  20.6 °C 29.73in /  1006.7hPa Calm     92.6% 0.00in /  0mm 62 W/m2
07:09 71.3 °F /  21.8 °C 69 °F /  20.6 °C 29.73in /  1006.7hPa Calm   1mph /  1.6km/h 92.3% 0.00in /  0mm 69 W/m2
07:14 71.3 °F /  21.8 °C 69.2 °F /  20.7 °C 29.73in /  1006.7hPa Calm   1mph /  1.6km/h 93% 0.00in /  0mm 81 W/m2
07:19 71.5 °F /  21.9 °C 69.3 °F /  20.7 °C 29.73in /  1006.7hPa Calm   1mph /  1.6km/h 93% 0.00in /  0mm 90 W/m2
07:24 71.6 °F /  22 °C 69.5 °F /  20.8 °C 29.73in /  1006.7hPa Calm   1mph /  1.6km/h 93% 0.00in /  0mm 91 W/m2
07:29 71.8 °F /  22.1 °C 69.6 °F /  20.9 °C 29.73in /  1006.7hPa Calm   1mph /  1.6km/h 93% 0.00in /  0mm 72 W/m2
07:34 72 °F /  22.2 °C 69.8 °F /  21 °C 29.73in /  1006.7hPa Calm   1mph /  1.6km/h 93% 0.00in /  0mm 69 W/m2
07:39 72.2 °F /  22.3 °C 70 °F /  21.1 °C 29.73in /  1006.7hPa Calm     93% 0.00in /  0mm 97 W/m2
07:44 72.3 °F /  22.4 °C 70.1 °F /  21.2 °C 29.73in /  1006.7hPa Calm     92.7% 0.00in /  0mm 132 W/m2
07:49 72.5 °F /  22.5 °C 70.1 °F /  21.2 °C 29.73in /  1006.7hPa Calm     92% 0.00in /  0mm 118 W/m2
07:54 72.7 °F /  22.6 °C 70.2 °F /  21.2 °C 29.72in /  1006.3hPa Calm     92% 0.00in /  0mm 137 W/m2
07:59 72.9 °F /  22.7 °C 70.4 °F /  21.3 °C 29.72in /  1006.3hPa Calm     92% 0.00in /  0mm 114 W/m2
08:00 73 °F /  22.8 °C 70.5 °F /  21.4 °C 29.72in /  1006.3hPa Calm     92% 0.00in /  0mm 114 W/m2
08:09 73.3 °F /  22.9 °C 70.5 °F /  21.4 °C 29.72in /  1006.3hPa Calm   1mph /  1.6km/h 91% 0.00in /  0mm 141 W/m2
08:14 73.5 °F /  23.1 °C 70.7 °F /  21.5 °C 29.71in /  1006hPa Calm   1mph /  1.6km/h 91% 0.00in /  0mm 195 W/m2
08:19 73.7 °F /  23.2 °C 70.9 °F /  21.6 °C 29.71in /  1006hPa Calm   1mph /  1.6km/h 91% 0.00in /  0mm 200 W/m2
08:24 73.9 °F /  23.3 °C 70.8 °F /  21.6 °C 29.71in /  1006hPa Calm   1mph /  1.6km/h 90.1% 0.00in /  0mm 195 W/m2
08:29 74.2 °F /  23.4 °C 71.1 °F /  21.7 °C 29.71in /  1006hPa Calm   1mph /  1.6km/h 90% 0.00in /  0mm 188 W/m2
08:34 74.4 °F /  23.6 °C 71.3 °F /  21.8 °C 29.71in /  1006hPa Calm   1mph /  1.6km/h 90% 0.00in /  0mm 230 W/m2
08:39 74.8 °F /  23.8 °C 71.6 °F /  22 °C 29.71in /  1006hPa Calm     89.7% 0.00in /  0mm 271 W/m2
08:44 75.3 °F /  24.1 °C 72 °F /  22.2 °C 29.71in /  1006hPa Calm     89.6% 0.00in /  0mm 265 W/m2
08:48 75.6 °F /  24.2 °C 72.1 °F /  22.3 °C 29.71in /  1006hPa Calm     88.7% 0.00in /  0mm 265 W/m2
Hartford County Weather
Compliments of Weather Underground - 2 mb